sensor_id;sensor_type;location;lat;lon;timestamp;P1;durP1;ratioP1;P2;durP2;ratioP2
35074;SDS011;21260;34.984;32.490;2023-03-21T00:01:58;4.60;;;2.42;;
35074;SDS011;21260;34.984;32.490;2023-03-21T00:04:25;7.25;;;2.40;;
35074;SDS011;21260;34.984;32.490;2023-03-21T00:06:52;6.78;;;2.60;;
35074;SDS011;21260;34.984;32.490;2023-03-21T00:09:19;5.87;;;2.53;;
35074;SDS011;21260;34.984;32.490;2023-03-21T00:11:45;9.15;;;2.58;;
35074;SDS011;21260;34.984;32.490;2023-03-21T00:14:13;6.25;;;2.65;;
35074;SDS011;21260;34.984;32.490;2023-03-21T00:16:42;4.63;;;2.72;;
35074;SDS011;21260;34.984;32.490;2023-03-21T00:19:15;5.15;;;2.50;;
35074;SDS011;21260;34.984;32.490;2023-03-21T00:21:44;9.30;;;2.75;;
35074;SDS011;21260;34.984;32.490;2023-03-21T00:24:11;6.95;;;2.90;;
35074;SDS011;21260;34.984;32.490;2023-03-21T00:26:38;6.22;;;2.92;;
35074;SDS011;21260;34.984;32.490;2023-03-21T00:29:04;6.68;;;3.03;;
35074;SDS011;21260;34.984;32.490;2023-03-21T00:31:31;5.90;;;2.95;;
35074;SDS011;21260;34.984;32.490;2023-03-21T00:33:57;6.30;;;3.00;;
35074;SDS011;21260;34.984;32.490;2023-03-21T00:36:23;6.85;;;3.13;;
35074;SDS011;21260;34.984;32.490;2023-03-21T00:38:50;5.40;;;2.90;;
35074;SDS011;21260;34.984;32.490;2023-03-21T00:41:17;6.90;;;2.80;;
35074;SDS011;21260;34.984;32.490;2023-03-21T00:43:43;7.95;;;2.90;;
35074;SDS011;21260;34.984;32.490;2023-03-21T00:46:10;7.15;;;2.80;;
35074;SDS011;21260;34.984;32.490;2023-03-21T00:48:36;6.90;;;3.00;;
35074;SDS011;21260;34.984;32.490;2023-03-21T00:51:09;7.13;;;3.33;;
35074;SDS011;21260;34.984;32.490;2023-03-21T00:53:50;5.68;;;3.10;;
35074;SDS011;21260;34.984;32.490;2023-03-21T00:56:22;5.72;;;2.97;;
35074;SDS011;21260;34.984;32.490;2023-03-21T00:58:49;7.75;;;3.40;;
35074;SDS011;21260;34.984;32.490;2023-03-21T01:01:15;5.43;;;2.80;;
35074;SDS011;21260;34.984;32.490;2023-03-21T01:03:42;5.32;;;2.88;;
35074;SDS011;21260;34.984;32.490;2023-03-21T01:06:14;7.18;;;3.30;;
35074;SDS011;21260;34.984;32.490;2023-03-21T01:08:43;7.10;;;3.13;;
35074;SDS011;21260;34.984;32.490;2023-03-21T01:11:13;6.50;;;2.95;;
35074;SDS011;21260;34.984;32.490;2023-03-21T01:13:42;8.65;;;3.15;;
35074;SDS011;21260;34.984;32.490;2023-03-21T01:16:09;5.38;;;2.97;;
35074;SDS011;21260;34.984;32.490;2023-03-21T01:18:37;6.35;;;2.70;;
35074;SDS011;21260;34.984;32.490;2023-03-21T01:21:10;6.67;;;2.83;;
35074;SDS011;21260;34.984;32.490;2023-03-21T01:23:39;5.82;;;2.78;;
35074;SDS011;21260;34.984;32.490;2023-03-21T01:26:08;8.48;;;2.92;;
35074;SDS011;21260;34.984;32.490;2023-03-21T01:28:37;7.88;;;2.90;;
35074;SDS011;21260;34.984;32.490;2023-03-21T01:31:06;5.35;;;3.10;;
35074;SDS011;21260;34.984;32.490;2023-03-21T01:33:34;7.40;;;3.35;;
35074;SDS011;21260;34.984;32.490;2023-03-21T01:36:01;9.32;;;3.40;;
35074;SDS011;21260;34.984;32.490;2023-03-21T01:38:28;6.40;;;3.10;;
35074;SDS011;21260;34.984;32.490;2023-03-21T01:40:55;7.20;;;3.10;;
35074;SDS011;21260;34.984;32.490;2023-03-21T01:43:25;7.77;;;3.20;;
35074;SDS011;21260;34.984;32.490;2023-03-21T01:46:12;8.23;;;3.17;;
35074;SDS011;21260;34.984;32.490;2023-03-21T01:48:57;6.25;;;2.90;;
35074;SDS011;21260;34.984;32.490;2023-03-21T01:52:06;7.80;;;3.05;;
35074;SDS011;21260;34.984;32.490;2023-03-21T01:54:37;6.47;;;2.80;;
35074;SDS011;21260;34.984;32.490;2023-03-21T01:57:07;7.95;;;3.17;;
35074;SDS011;21260;34.984;32.490;2023-03-21T01:59:50;7.60;;;3.03;;
35074;SDS011;21260;34.984;32.490;2023-03-21T02:02:20;6.63;;;2.80;;
35074;SDS011;21260;34.984;32.490;2023-03-21T02:04:51;4.78;;;2.70;;
35074;SDS011;21260;34.984;32.490;2023-03-21T02:07:31;5.88;;;2.70;;
35074;SDS011;21260;34.984;32.490;2023-03-21T02:10:01;5.37;;;2.90;;
35074;SDS011;21260;34.984;32.490;2023-03-21T02:12:32;5.90;;;2.67;;
35074;SDS011;21260;34.984;32.490;2023-03-21T02:14:59;7.78;;;2.67;;
35074;SDS011;21260;34.984;32.490;2023-03-21T02:17:27;7.00;;;2.75;;
35074;SDS011;21260;34.984;32.490;2023-03-21T02:32:57;5.45;;;3.10;;
35074;SDS011;21260;34.984;32.490;2023-03-21T02:36:00;6.63;;;2.97;;
35074;SDS011;21260;34.984;32.490;2023-03-21T02:39:07;6.30;;;3.20;;
35074;SDS011;21260;34.984;32.490;2023-03-21T02:44:15;6.78;;;2.83;;
35074;SDS011;21260;34.984;32.490;2023-03-21T02:46:59;7.97;;;3.17;;
35074;SDS011;21260;34.984;32.490;2023-03-21T02:49:34;5.75;;;2.90;;
35074;SDS011;21260;34.984;32.490;2023-03-21T02:52:32;5.35;;;2.97;;
35074;SDS011;21260;34.984;32.490;2023-03-21T02:55:01;6.47;;;2.90;;
35074;SDS011;21260;34.984;32.490;2023-03-21T02:57:37;4.93;;;3.10;;
35074;SDS011;21260;34.984;32.490;2023-03-21T03:00:08;5.43;;;3.00;;
35074;SDS011;21260;34.984;32.490;2023-03-21T03:02:41;4.88;;;2.85;;
35074;SDS011;21260;34.984;32.490;2023-03-21T03:05:15;6.63;;;3.05;;
35074;SDS011;21260;34.984;32.490;2023-03-21T03:13:44;5.85;;;3.15;;
35074;SDS011;21260;34.984;32.490;2023-03-21T03:19:27;8.13;;;3.28;;
35074;SDS011;21260;34.984;32.490;2023-03-21T03:22:00;4.13;;;3.08;;
35074;SDS011;21260;34.984;32.490;2023-03-21T03:27:36;5.13;;;3.28;;
35074;SDS011;21260;34.984;32.490;2023-03-21T03:30:08;6.78;;;2.63;;
35074;SDS011;21260;34.984;32.490;2023-03-21T03:32:44;4.82;;;2.80;;
35074;SDS011;21260;34.984;32.490;2023-03-21T03:35:18;7.70;;;3.00;;
35074;SDS011;21260;34.984;32.490;2023-03-21T03:37:49;4.78;;;2.85;;
35074;SDS011;21260;34.984;32.490;2023-03-21T03:40:29;3.55;;;2.67;;
35074;SDS011;21260;34.984;32.490;2023-03-21T03:43:07;6.13;;;2.92;;
35074;SDS011;21260;34.984;32.490;2023-03-21T03:45:46;4.20;;;2.67;;
35074;SDS011;21260;34.984;32.490;2023-03-21T03:51:00;5.43;;;3.05;;
35074;SDS011;21260;34.984;32.490;2023-03-21T03:53:45;6.30;;;3.00;;
35074;SDS011;21260;34.984;32.490;2023-03-21T03:56:20;5.22;;;3.00;;
35074;SDS011;21260;34.984;32.490;2023-03-21T03:58:47;4.72;;;2.85;;
35074;SDS011;21260;34.984;32.490;2023-03-21T04:01:14;6.03;;;2.80;;
35074;SDS011;21260;34.984;32.490;2023-03-21T04:03:41;5.45;;;2.85;;
35074;SDS011;21260;34.984;32.490;2023-03-21T04:06:12;5.70;;;3.10;;
35074;SDS011;21260;34.984;32.490;2023-03-21T04:08:39;5.90;;;3.17;;
35074;SDS011;21260;34.984;32.490;2023-03-21T04:11:05;5.88;;;3.00;;
35074;SDS011;21260;34.984;32.490;2023-03-21T04:13:32;6.22;;;3.10;;
35074;SDS011;21260;34.984;32.490;2023-03-21T04:15:59;6.50;;;3.37;;
35074;SDS011;21260;34.984;32.490;2023-03-21T04:18:25;5.65;;;3.30;;
35074;SDS011;21260;34.984;32.490;2023-03-21T04:20:51;5.60;;;3.00;;
35074;SDS011;21260;34.984;32.490;2023-03-21T04:23:18;5.00;;;3.17;;
35074;SDS011;21260;34.984;32.490;2023-03-21T04:25:44;5.47;;;3.22;;
35074;SDS011;21260;34.984;32.490;2023-03-21T04:28:11;7.30;;;3.30;;
35074;SDS011;21260;34.984;32.490;2023-03-21T04:30:38;5.47;;;3.35;;
35074;SDS011;21260;34.984;32.490;2023-03-21T04:33:05;6.45;;;3.40;;
35074;SDS011;21260;34.984;32.490;2023-03-21T04:35:32;7.38;;;3.42;;
35074;SDS011;21260;34.984;32.490;2023-03-21T04:38:00;5.97;;;3.38;;
35074;SDS011;21260;34.984;32.490;2023-03-21T04:40:26;6.88;;;3.40;;
35074;SDS011;21260;34.984;32.490;2023-03-21T04:42:52;6.50;;;3.30;;
35074;SDS011;21260;34.984;32.490;2023-03-21T04:45:19;5.97;;;3.15;;
35074;SDS011;21260;34.984;32.490;2023-03-21T04:47:46;7.20;;;3.45;;
35074;SDS011;21260;34.984;32.490;2023-03-21T04:50:12;7.40;;;3.60;;
35074;SDS011;21260;34.984;32.490;2023-03-21T04:52:39;5.75;;;3.58;;
35074;SDS011;21260;34.984;32.490;2023-03-21T04:55:06;6.60;;;3.58;;
35074;SDS011;21260;34.984;32.490;2023-03-21T04:57:34;5.23;;;3.40;;
35074;SDS011;21260;34.984;32.490;2023-03-21T05:00:04;6.03;;;3.33;;
35074;SDS011;21260;34.984;32.490;2023-03-21T05:02:38;7.22;;;3.78;;
35074;SDS011;21260;34.984;32.490;2023-03-21T05:05:04;6.57;;;3.45;;
35074;SDS011;21260;34.984;32.490;2023-03-21T05:07:35;7.75;;;3.80;;
35074;SDS011;21260;34.984;32.490;2023-03-21T05:10:04;6.65;;;3.92;;
35074;SDS011;21260;34.984;32.490;2023-03-21T05:12:33;5.80;;;3.60;;
35074;SDS011;21260;34.984;32.490;2023-03-21T05:14:59;5.22;;;3.40;;
35074;SDS011;21260;34.984;32.490;2023-03-21T05:17:26;4.63;;;3.22;;
35074;SDS011;21260;34.984;32.490;2023-03-21T05:19:52;6.20;;;3.30;;
35074;SDS011;21260;34.984;32.490;2023-03-21T05:22:20;5.93;;;3.60;;
35074;SDS011;21260;34.984;32.490;2023-03-21T05:24:51;5.82;;;3.50;;
35074;SDS011;21260;34.984;32.490;2023-03-21T05:27:20;5.45;;;3.53;;
35074;SDS011;21260;34.984;32.490;2023-03-21T05:30:01;4.78;;;3.60;;
35074;SDS011;21260;34.984;32.490;2023-03-21T05:32:39;6.72;;;3.70;;
35074;SDS011;21260;34.984;32.490;2023-03-21T05:35:06;6.55;;;3.65;;
35074;SDS011;21260;34.984;32.490;2023-03-21T05:37:33;5.60;;;3.50;;
35074;SDS011;21260;34.984;32.490;2023-03-21T05:40:00;5.20;;;3.40;;
35074;SDS011;21260;34.984;32.490;2023-03-21T05:42:28;4.70;;;3.80;;
35074;SDS011;21260;34.984;32.490;2023-03-21T05:44:55;4.70;;;3.53;;
35074;SDS011;21260;34.984;32.490;2023-03-21T05:47:21;4.45;;;3.58;;
35074;SDS011;21260;34.984;32.490;2023-03-21T05:49:48;5.72;;;3.65;;
35074;SDS011;21260;34.984;32.490;2023-03-21T05:52:15;6.88;;;3.80;;
35074;SDS011;21260;34.984;32.490;2023-03-21T05:54:41;6.63;;;3.70;;
35074;SDS011;21260;34.984;32.490;2023-03-21T05:57:08;6.13;;;3.97;;
35074;SDS011;21260;34.984;32.490;2023-03-21T05:59:34;6.33;;;4.00;;
35074;SDS011;21260;34.984;32.490;2023-03-21T06:02:01;5.70;;;4.10;;
35074;SDS011;21260;34.984;32.490;2023-03-21T06:04:27;6.43;;;3.72;;
35074;SDS011;21260;34.984;32.490;2023-03-21T06:06:55;6.77;;;3.90;;
35074;SDS011;21260;34.984;32.490;2023-03-21T06:09:21;6.72;;;4.20;;
35074;SDS011;21260;34.984;32.490;2023-03-21T06:11:49;7.63;;;4.20;;
35074;SDS011;21260;34.984;32.490;2023-03-21T06:14:19;7.70;;;4.18;;
35074;SDS011;21260;34.984;32.490;2023-03-21T06:16:46;8.52;;;4.10;;
35074;SDS011;21260;34.984;32.490;2023-03-21T06:19:12;6.72;;;3.88;;
35074;SDS011;21260;34.984;32.490;2023-03-21T06:21:39;5.88;;;3.55;;
35074;SDS011;21260;34.984;32.490;2023-03-21T06:24:06;7.22;;;3.70;;
35074;SDS011;21260;34.984;32.490;2023-03-21T06:26:32;7.40;;;3.88;;
35074;SDS011;21260;34.984;32.490;2023-03-21T06:28:59;7.45;;;3.92;;
35074;SDS011;21260;34.984;32.490;2023-03-21T06:31:25;7.80;;;4.20;;
35074;SDS011;21260;34.984;32.490;2023-03-21T06:33:51;9.60;;;3.95;;
35074;SDS011;21260;34.984;32.490;2023-03-21T06:36:18;7.85;;;3.95;;
35074;SDS011;21260;34.984;32.490;2023-03-21T06:38:45;7.30;;;3.60;;
35074;SDS011;21260;34.984;32.490;2023-03-21T06:41:13;8.15;;;3.60;;
35074;SDS011;21260;34.984;32.490;2023-03-21T06:43:41;6.32;;;3.50;;
35074;SDS011;21260;34.984;32.490;2023-03-21T06:46:08;10.05;;;3.70;;
35074;SDS011;21260;34.984;32.490;2023-03-21T06:48:34;6.47;;;3.40;;
35074;SDS011;21260;34.984;32.490;2023-03-21T06:51:01;8.52;;;3.95;;
35074;SDS011;21260;34.984;32.490;2023-03-21T06:53:29;7.45;;;3.80;;
35074;SDS011;21260;34.984;32.490;2023-03-21T06:55:56;4.90;;;3.20;;
35074;SDS011;21260;34.984;32.490;2023-03-21T06:58:23;6.57;;;3.47;;
35074;SDS011;21260;34.984;32.490;2023-03-21T07:00:49;7.18;;;3.13;;
35074;SDS011;21260;34.984;32.490;2023-03-21T07:03:15;5.43;;;3.07;;
35074;SDS011;21260;34.984;32.490;2023-03-21T07:05:43;7.18;;;3.42;;
35074;SDS011;21260;34.984;32.490;2023-03-21T07:08:09;7.40;;;3.42;;
35074;SDS011;21260;34.984;32.490;2023-03-21T07:10:43;8.73;;;3.42;;
35074;SDS011;21260;34.984;32.490;2023-03-21T07:13:11;8.32;;;3.58;;
35074;SDS011;21260;34.984;32.490;2023-03-21T07:15:38;7.13;;;3.90;;
35074;SDS011;21260;34.984;32.490;2023-03-21T07:18:06;7.43;;;4.00;;
35074;SDS011;21260;34.984;32.490;2023-03-21T07:20:34;7.00;;;3.73;;
35074;SDS011;21260;34.984;32.490;2023-03-21T07:23:04;7.30;;;3.80;;
35074;SDS011;21260;34.984;32.490;2023-03-21T07:25:31;7.95;;;3.65;;
35074;SDS011;21260;34.984;32.490;2023-03-21T07:27:58;8.88;;;3.45;;
35074;SDS011;21260;34.984;32.490;2023-03-21T07:30:25;8.40;;;3.60;;
35074;SDS011;21260;34.984;32.490;2023-03-21T07:32:51;6.10;;;3.30;;
35074;SDS011;21260;34.984;32.490;2023-03-21T07:35:18;7.00;;;3.38;;
35074;SDS011;21260;34.984;32.490;2023-03-21T07:37:45;6.55;;;3.50;;
35074;SDS011;21260;34.984;32.490;2023-03-21T07:40:11;6.47;;;3.50;;
35074;SDS011;21260;34.984;32.490;2023-03-21T07:42:38;7.28;;;3.40;;
35074;SDS011;21260;34.984;32.490;2023-03-21T07:45:05;8.35;;;3.40;;
35074;SDS011;21260;34.984;32.490;2023-03-21T07:47:34;10.10;;;3.42;;
35074;SDS011;21260;34.984;32.490;2023-03-21T07:50:01;5.93;;;3.00;;
35074;SDS011;21260;34.984;32.490;2023-03-21T07:52:28;6.68;;;3.20;;
35074;SDS011;21260;34.984;32.490;2023-03-21T07:54:55;5.82;;;2.90;;
35074;SDS011;21260;34.984;32.490;2023-03-21T07:57:21;5.47;;;2.88;;
35074;SDS011;21260;34.984;32.490;2023-03-21T07:59:49;5.18;;;2.50;;
35074;SDS011;21260;34.984;32.490;2023-03-21T08:02:16;6.53;;;2.73;;
35074;SDS011;21260;34.984;32.490;2023-03-21T08:04:43;5.13;;;2.35;;
35074;SDS011;21260;34.984;32.490;2023-03-21T08:07:10;6.00;;;3.00;;
35074;SDS011;21260;34.984;32.490;2023-03-21T08:09:36;4.82;;;2.83;;
35074;SDS011;21260;34.984;32.490;2023-03-21T08:12:03;7.60;;;2.63;;
35074;SDS011;21260;34.984;32.490;2023-03-21T08:14:32;7.93;;;2.30;;
35074;SDS011;21260;34.984;32.490;2023-03-21T08:17:00;4.50;;;2.30;;
35074;SDS011;21260;34.984;32.490;2023-03-21T08:19:26;5.33;;;2.30;;
35074;SDS011;21260;34.984;32.490;2023-03-21T08:21:52;5.65;;;2.15;;
35074;SDS011;21260;34.984;32.490;2023-03-21T08:24:19;5.05;;;2.28;;
35074;SDS011;21260;34.984;32.490;2023-03-21T08:26:45;5.17;;;2.30;;
35074;SDS011;21260;34.984;32.490;2023-03-21T08:29:12;6.32;;;2.38;;
35074;SDS011;21260;34.984;32.490;2023-03-21T08:31:39;8.07;;;2.50;;
35074;SDS011;21260;34.984;32.490;2023-03-21T08:34:05;4.45;;;2.05;;
35074;SDS011;21260;34.984;32.490;2023-03-21T08:36:32;4.37;;;2.20;;
35074;SDS011;21260;34.984;32.490;2023-03-21T08:39:02;8.70;;;2.40;;
35074;SDS011;21260;34.984;32.490;2023-03-21T08:41:34;5.55;;;1.83;;
35074;SDS011;21260;34.984;32.490;2023-03-21T08:44:02;6.93;;;1.90;;
35074;SDS011;21260;34.984;32.490;2023-03-21T08:46:31;3.92;;;1.83;;
35074;SDS011;21260;34.984;32.490;2023-03-21T08:48:57;4.05;;;1.83;;
35074;SDS011;21260;34.984;32.490;2023-03-21T08:51:24;5.63;;;1.90;;
35074;SDS011;21260;34.984;32.490;2023-03-21T08:53:50;5.10;;;2.30;;
35074;SDS011;21260;34.984;32.490;2023-03-21T08:56:16;4.72;;;2.00;;
35074;SDS011;21260;34.984;32.490;2023-03-21T08:58:43;4.85;;;1.90;;
35074;SDS011;21260;34.984;32.490;2023-03-21T09:01:10;3.05;;;1.95;;
35074;SDS011;21260;34.984;32.490;2023-03-21T09:03:41;4.43;;;1.90;;
35074;SDS011;21260;34.984;32.490;2023-03-21T09:06:08;8.20;;;2.38;;
35074;SDS011;21260;34.984;32.490;2023-03-21T09:08:38;5.63;;;2.20;;
35074;SDS011;21260;34.984;32.490;2023-03-21T09:11:10;3.63;;;1.93;;
35074;SDS011;21260;34.984;32.490;2023-03-21T09:13:36;4.88;;;2.03;;
35074;SDS011;21260;34.984;32.490;2023-03-21T09:16:02;7.43;;;2.50;;
35074;SDS011;21260;34.984;32.490;2023-03-21T09:18:29;3.45;;;2.10;;
35074;SDS011;21260;34.984;32.490;2023-03-21T09:21:13;4.75;;;2.08;;
35074;SDS011;21260;34.984;32.490;2023-03-21T09:23:42;4.87;;;2.10;;
35074;SDS011;21260;34.984;32.490;2023-03-21T09:26:09;5.20;;;2.22;;
35074;SDS011;21260;34.984;32.490;2023-03-21T09:28:37;5.05;;;2.00;;
35074;SDS011;21260;34.984;32.490;2023-03-21T09:31:04;5.30;;;2.40;;
35074;SDS011;21260;34.984;32.490;2023-03-21T09:33:35;5.20;;;2.07;;
35074;SDS011;21260;34.984;32.490;2023-03-21T09:36:04;6.47;;;2.20;;
35074;SDS011;21260;34.984;32.490;2023-03-21T09:38:38;7.55;;;2.35;;
35074;SDS011;21260;34.984;32.490;2023-03-21T09:49:17;7.03;;;2.50;;
35074;SDS011;21260;34.984;32.490;2023-03-21T09:51:56;5.97;;;2.60;;
35074;SDS011;21260;34.984;32.490;2023-03-21T09:54:36;7.57;;;2.20;;
35074;SDS011;21260;34.984;32.490;2023-03-21T09:57:18;6.93;;;2.30;;
35074;SDS011;21260;34.984;32.490;2023-03-21T09:59:57;6.90;;;2.50;;
35074;SDS011;21260;34.984;32.490;2023-03-21T10:02:38;6.95;;;2.15;;
35074;SDS011;21260;34.984;32.490;2023-03-21T10:07:50;8.30;;;2.70;;
35074;SDS011;21260;34.984;32.490;2023-03-21T10:10:34;9.38;;;3.10;;
35074;SDS011;21260;34.984;32.490;2023-03-21T10:13:19;8.43;;;3.22;;
35074;SDS011;21260;34.984;32.490;2023-03-21T10:15:53;9.05;;;3.33;;
35074;SDS011;21260;34.984;32.490;2023-03-21T10:18:27;8.53;;;3.20;;
35074;SDS011;21260;34.984;32.490;2023-03-21T10:20:56;6.70;;;3.15;;
35074;SDS011;21260;34.984;32.490;2023-03-21T10:23:24;9.93;;;3.13;;
35074;SDS011;21260;34.984;32.490;2023-03-21T10:25:54;7.43;;;3.05;;
35074;SDS011;21260;34.984;32.490;2023-03-21T10:28:28;7.80;;;3.10;;
35074;SDS011;21260;34.984;32.490;2023-03-21T10:31:02;7.03;;;2.93;;
35074;SDS011;21260;34.984;32.490;2023-03-21T10:33:42;18.53;;;3.50;;
35074;SDS011;21260;34.984;32.490;2023-03-21T10:36:16;7.60;;;2.80;;
35074;SDS011;21260;34.984;32.490;2023-03-21T10:41:30;9.55;;;2.92;;
35074;SDS011;21260;34.984;32.490;2023-03-21T10:44:11;12.45;;;3.10;;
35074;SDS011;21260;34.984;32.490;2023-03-21T10:49:21;9.32;;;3.13;;
35074;SDS011;21260;34.984;32.490;2023-03-21T10:51:50;7.72;;;2.70;;
35074;SDS011;21260;34.984;32.490;2023-03-21T10:54:24;6.93;;;2.70;;
35074;SDS011;21260;34.984;32.490;2023-03-21T10:59:26;5.85;;;2.40;;
35074;SDS011;21260;34.984;32.490;2023-03-21T11:02:03;6.55;;;2.30;;
35074;SDS011;21260;34.984;32.490;2023-03-21T11:04:31;6.28;;;2.38;;
35074;SDS011;21260;34.984;32.490;2023-03-21T11:06:59;4.47;;;2.33;;
35074;SDS011;21260;34.984;32.490;2023-03-21T11:12:35;4.35;;;2.22;;
35074;SDS011;21260;34.984;32.490;2023-03-21T11:15:48;7.28;;;2.20;;
35074;SDS011;21260;34.984;32.490;2023-03-21T11:18:12;6.43;;;2.30;;
35074;SDS011;21260;34.984;32.490;2023-03-21T11:20:48;6.68;;;2.35;;
35074;SDS011;21260;34.984;32.490;2023-03-21T11:23:30;5.37;;;2.37;;
35074;SDS011;21260;34.984;32.490;2023-03-21T11:25:59;6.17;;;2.33;;
35074;SDS011;21260;34.984;32.490;2023-03-21T11:28:34;5.43;;;2.35;;
35074;SDS011;21260;34.984;32.490;2023-03-21T11:31:04;6.13;;;2.50;;
35074;SDS011;21260;34.984;32.490;2023-03-21T11:33:40;6.95;;;2.40;;
35074;SDS011;21260;34.984;32.490;2023-03-21T11:38:58;5.07;;;2.40;;
35074;SDS011;21260;34.984;32.490;2023-03-21T11:41:48;6.00;;;2.28;;
35074;SDS011;21260;34.984;32.490;2023-03-21T11:44:27;5.72;;;2.15;;
35074;SDS011;21260;34.984;32.490;2023-03-21T11:47:07;7.40;;;2.60;;
35074;SDS011;21260;34.984;32.490;2023-03-21T11:49:35;6.78;;;2.38;;
35074;SDS011;21260;34.984;32.490;2023-03-21T11:52:07;5.93;;;2.22;;
35074;SDS011;21260;34.984;32.490;2023-03-21T12:01:04;4.85;;;2.20;;
35074;SDS011;21260;34.984;32.490;2023-03-21T12:06:34;3.75;;;2.03;;
35074;SDS011;21260;34.984;32.490;2023-03-21T12:09:37;4.57;;;2.10;;
35074;SDS011;21260;34.984;32.490;2023-03-21T12:18:58;7.32;;;2.38;;
35074;SDS011;21260;34.984;32.490;2023-03-21T12:27:38;4.57;;;2.35;;
35074;SDS011;21260;34.984;32.490;2023-03-21T12:41:42;4.77;;;2.30;;
35074;SDS011;21260;34.984;32.490;2023-03-21T12:44:46;5.47;;;2.35;;
35074;SDS011;21260;34.984;32.490;2023-03-21T12:47:23;3.92;;;2.22;;
35074;SDS011;21260;34.984;32.490;2023-03-21T12:49:59;5.95;;;2.47;;
35074;SDS011;21260;34.984;32.490;2023-03-21T12:52:56;9.10;;;2.60;;
35074;SDS011;21260;34.984;32.490;2023-03-21T12:55:33;6.90;;;2.70;;
35074;SDS011;21260;34.984;32.490;2023-03-21T12:58:03;4.72;;;2.20;;
35074;SDS011;21260;34.984;32.490;2023-03-21T13:06:12;7.03;;;2.60;;
35074;SDS011;21260;34.984;32.490;2023-03-21T13:08:46;6.75;;;2.28;;
35074;SDS011;21260;34.984;32.490;2023-03-21T13:21:22;3.72;;;1.83;;
35074;SDS011;21260;34.984;32.490;2023-03-21T13:24:16;5.45;;;1.90;;
35074;SDS011;21260;34.984;32.490;2023-03-21T13:30:04;5.38;;;2.25;;
35074;SDS011;21260;34.984;32.490;2023-03-21T13:32:48;4.40;;;1.98;;
35074;SDS011;21260;34.984;32.490;2023-03-21T13:35:35;6.20;;;1.90;;
35074;SDS011;21260;34.984;32.490;2023-03-21T13:38:08;4.40;;;2.00;;
35074;SDS011;21260;34.984;32.490;2023-03-21T13:40:49;6.10;;;2.28;;
35074;SDS011;21260;34.984;32.490;2023-03-21T13:54:03;6.85;;;2.45;;
35074;SDS011;21260;34.984;32.490;2023-03-21T13:56:55;3.60;;;2.10;;
35074;SDS011;21260;34.984;32.490;2023-03-21T14:05:13;3.60;;;2.03;;
35074;SDS011;21260;34.984;32.490;2023-03-21T14:07:46;5.47;;;2.30;;
35074;SDS011;21260;34.984;32.490;2023-03-21T14:12:59;4.80;;;2.00;;
35074;SDS011;21260;34.984;32.490;2023-03-21T14:15:39;4.13;;;2.20;;
35074;SDS011;21260;34.984;32.490;2023-03-21T14:18:20;5.20;;;1.93;;
35074;SDS011;21260;34.984;32.490;2023-03-21T14:20:56;3.90;;;1.90;;
35074;SDS011;21260;34.984;32.490;2023-03-21T14:23:24;4.72;;;1.95;;
35074;SDS011;21260;34.984;32.490;2023-03-21T14:25:51;6.75;;;2.30;;
35074;SDS011;21260;34.984;32.490;2023-03-21T14:30:57;3.60;;;2.20;;
35074;SDS011;21260;34.984;32.490;2023-03-21T14:33:34;5.38;;;2.17;;
35074;SDS011;21260;34.984;32.490;2023-03-21T14:36:06;4.00;;;2.20;;
35074;SDS011;21260;34.984;32.490;2023-03-21T14:38:53;4.85;;;2.25;;
35074;SDS011;21260;34.984;32.490;2023-03-21T14:41:28;5.30;;;2.55;;
35074;SDS011;21260;34.984;32.490;2023-03-21T14:44:17;5.38;;;2.65;;
35074;SDS011;21260;34.984;32.490;2023-03-21T14:47:16;5.47;;;2.60;;
35074;SDS011;21260;34.984;32.490;2023-03-21T14:49:51;7.47;;;2.78;;
35074;SDS011;21260;34.984;32.490;2023-03-21T14:52:28;6.28;;;2.70;;
35074;SDS011;21260;34.984;32.490;2023-03-21T14:54:57;4.53;;;2.57;;
35074;SDS011;21260;34.984;32.490;2023-03-21T14:57:27;5.22;;;2.85;;
35074;SDS011;21260;34.984;32.490;2023-03-21T15:00:01;4.37;;;2.50;;
35074;SDS011;21260;34.984;32.490;2023-03-21T15:02:39;8.93;;;2.97;;
35074;SDS011;21260;34.984;32.490;2023-03-21T15:07:54;4.97;;;2.77;;
35074;SDS011;21260;34.984;32.490;2023-03-21T15:10:26;6.30;;;2.80;;
35074;SDS011;21260;34.984;32.490;2023-03-21T15:12:56;5.85;;;2.70;;
35074;SDS011;21260;34.984;32.490;2023-03-21T15:15:27;6.82;;;2.60;;
35074;SDS011;21260;34.984;32.490;2023-03-21T15:17:57;6.33;;;2.63;;
35074;SDS011;21260;34.984;32.490;2023-03-21T15:20:30;5.23;;;2.50;;
35074;SDS011;21260;34.984;32.490;2023-03-21T15:23:02;8.63;;;2.60;;
35074;SDS011;21260;34.984;32.490;2023-03-21T15:25:39;5.78;;;2.40;;
35074;SDS011;21260;34.984;32.490;2023-03-21T15:28:08;4.13;;;2.30;;
35074;SDS011;21260;34.984;32.490;2023-03-21T15:30:38;4.70;;;2.13;;
35074;SDS011;21260;34.984;32.490;2023-03-21T15:33:15;4.60;;;2.40;;
35074;SDS011;21260;34.984;32.490;2023-03-21T15:35:44;4.90;;;2.37;;
35074;SDS011;21260;34.984;32.490;2023-03-21T15:38:28;3.87;;;2.20;;
35074;SDS011;21260;34.984;32.490;2023-03-21T15:46:33;4.63;;;2.13;;
35074;SDS011;21260;34.984;32.490;2023-03-21T15:51:40;3.58;;;2.20;;
35074;SDS011;21260;34.984;32.490;2023-03-21T15:54:17;4.90;;;2.38;;
35074;SDS011;21260;34.984;32.490;2023-03-21T15:56:54;4.60;;;2.20;;
35074;SDS011;21260;34.984;32.490;2023-03-21T15:59:29;5.07;;;2.33;;
35074;SDS011;21260;34.984;32.490;2023-03-21T16:02:00;4.80;;;2.30;;
35074;SDS011;21260;34.984;32.490;2023-03-21T16:04:29;4.70;;;2.53;;
35074;SDS011;21260;34.984;32.490;2023-03-21T16:09:26;6.65;;;2.40;;
35074;SDS011;21260;34.984;32.490;2023-03-21T16:12:09;4.78;;;2.50;;
35074;SDS011;21260;34.984;32.490;2023-03-21T16:14:38;4.88;;;2.55;;
35074;SDS011;21260;34.984;32.490;2023-03-21T16:20:05;5.65;;;2.33;;
35074;SDS011;21260;34.984;32.490;2023-03-21T16:23:01;4.93;;;2.17;;
35074;SDS011;21260;34.984;32.490;2023-03-21T16:25:29;4.78;;;2.35;;
35074;SDS011;21260;34.984;32.490;2023-03-21T16:27:57;5.82;;;2.50;;
35074;SDS011;21260;34.984;32.490;2023-03-21T16:30:23;4.63;;;3.00;;
35074;SDS011;21260;34.984;32.490;2023-03-21T16:32:50;6.00;;;2.90;;
35074;SDS011;21260;34.984;32.490;2023-03-21T16:35:17;4.30;;;2.55;;
35074;SDS011;21260;34.984;32.490;2023-03-21T16:37:43;6.28;;;2.30;;
35074;SDS011;21260;34.984;32.490;2023-03-21T16:42:50;4.67;;;2.27;;
35074;SDS011;21260;34.984;32.490;2023-03-21T16:45:16;6.22;;;2.45;;
35074;SDS011;21260;34.984;32.490;2023-03-21T16:47:42;3.95;;;2.30;;
35074;SDS011;21260;34.984;32.490;2023-03-21T16:50:13;3.63;;;2.20;;
35074;SDS011;21260;34.984;32.490;2023-03-21T16:52:54;4.68;;;2.35;;
35074;SDS011;21260;34.984;32.490;2023-03-21T16:55:22;3.97;;;2.20;;
35074;SDS011;21260;34.984;32.490;2023-03-21T16:57:50;4.07;;;2.25;;
35074;SDS011;21260;34.984;32.490;2023-03-21T17:00:20;6.50;;;2.30;;
35074;SDS011;21260;34.984;32.490;2023-03-21T17:02:50;4.30;;;2.00;;
35074;SDS011;21260;34.984;32.490;2023-03-21T17:05:23;3.43;;;2.20;;
35074;SDS011;21260;34.984;32.490;2023-03-21T17:07:53;5.18;;;2.20;;
35074;SDS011;21260;34.984;32.490;2023-03-21T17:10:21;4.68;;;2.17;;
35074;SDS011;21260;34.984;32.490;2023-03-21T17:12:51;4.85;;;2.35;;
35074;SDS011;21260;34.984;32.490;2023-03-21T17:15:18;5.60;;;2.40;;
35074;SDS011;21260;34.984;32.490;2023-03-21T17:17:45;4.20;;;2.17;;
35074;SDS011;21260;34.984;32.490;2023-03-21T17:20:25;7.28;;;3.97;;
35074;SDS011;21260;34.984;32.490;2023-03-21T17:22:57;6.20;;;3.80;;
35074;SDS011;21260;34.984;32.490;2023-03-21T17:25:24;5.57;;;2.95;;
35074;SDS011;21260;34.984;32.490;2023-03-21T17:27:51;5.83;;;2.60;;